sensor_id;sensor_type;location;lat;lon;timestamp;pressure;altitude;pressure_sealevel;temperature;humidity
17230;BME280;8731;50.364;8.958;2023-05-03T00:01:29;101215.09;;;7.23;75.74
17230;BME280;8731;50.364;8.958;2023-05-03T00:05:53;101218.59;;;6.97;77.52
17230;BME280;8731;50.364;8.958;2023-05-03T00:10:15;101206.09;;;6.91;77.11
17230;BME280;8731;50.364;8.958;2023-05-03T00:14:38;101202.13;;;6.93;77.42
17230;BME280;8731;50.364;8.958;2023-05-03T00:19:01;101198.13;;;6.88;76.87
17230;BME280;8731;50.364;8.958;2023-05-03T00:23:25;101195.41;;;6.87;77.61
17230;BME280;8731;50.364;8.958;2023-05-03T00:27:48;101196.09;;;6.86;76.91
17230;BME280;8731;50.364;8.958;2023-05-03T00:32:10;101202.25;;;6.54;78.51
17230;BME280;8731;50.364;8.958;2023-05-03T00:36:33;101211.94;;;6.43;80.33
17230;BME280;8731;50.364;8.958;2023-05-03T00:40:57;101192.66;;;6.51;79.21
17230;BME280;8731;50.364;8.958;2023-05-03T00:45:19;101192.88;;;6.33;80.04
17230;BME280;8731;50.364;8.958;2023-05-03T00:49:42;101184.13;;;6.17;80.12
17230;BME280;8731;50.364;8.958;2023-05-03T00:54:05;101185.69;;;6.36;77.88
17230;BME280;8731;50.364;8.958;2023-05-03T00:58:29;101191.44;;;6.08;80.55
17230;BME280;8731;50.364;8.958;2023-05-03T01:02:52;101176.75;;;5.85;80.63
17230;BME280;8731;50.364;8.958;2023-05-03T01:07:22;101182.66;;;5.92;79.68
17230;BME280;8731;50.364;8.958;2023-05-03T01:11:59;101178.41;;;6.05;77.80
17230;BME280;8731;50.364;8.958;2023-05-03T01:16:35;101181.88;;;5.53;82.16
17230;BME280;8731;50.364;8.958;2023-05-03T01:21:01;101190.59;;;5.62;81.11
17230;BME280;8731;50.364;8.958;2023-05-03T01:25:27;101185.97;;;5.33;82.83
17230;BME280;8731;50.364;8.958;2023-05-03T01:29:50;101174.47;;;5.54;80.69
17230;BME280;8731;50.364;8.958;2023-05-03T01:34:19;101184.03;;;5.37;81.17
17230;BME280;8731;50.364;8.958;2023-05-03T01:38:48;101183.72;;;5.41;81.20
17230;BME280;8731;50.364;8.958;2023-05-03T01:43:15;101183.25;;;5.31;80.27
17230;BME280;8731;50.364;8.958;2023-05-03T01:47:40;101181.66;;;5.51;79.06
17230;BME280;8731;50.364;8.958;2023-05-03T01:52:03;101183.38;;;5.26;81.18
17230;BME280;8731;50.364;8.958;2023-05-03T01:56:26;101181.25;;;5.29;80.00
17230;BME280;8731;50.364;8.958;2023-05-03T02:00:50;101184.94;;;5.05;82.86
17230;BME280;8731;50.364;8.958;2023-05-03T02:05:13;101189.47;;;5.08;82.03
17230;BME280;8731;50.364;8.958;2023-05-03T02:09:35;101184.28;;;5.13;82.06
17230;BME280;8731;50.364;8.958;2023-05-03T02:13:58;101188.75;;;5.09;81.41
17230;BME280;8731;50.364;8.958;2023-05-03T02:18:22;101190.88;;;4.93;81.62
17230;BME280;8731;50.364;8.958;2023-05-03T02:22:45;101189.66;;;4.97;80.81
17230;BME280;8731;50.364;8.958;2023-05-03T02:27:07;101190.69;;;4.91;81.97
17230;BME280;8731;50.364;8.958;2023-05-03T02:31:31;101204.94;;;4.78;82.76
17230;BME280;8731;50.364;8.958;2023-05-03T02:35:55;101205.34;;;4.56;83.11
17230;BME280;8731;50.364;8.958;2023-05-03T02:40:17;101208.06;;;4.83;81.40
17230;BME280;8731;50.364;8.958;2023-05-03T02:44:41;101206.94;;;4.68;80.81
17230;BME280;8731;50.364;8.958;2023-05-03T02:49:05;101214.09;;;3.96;85.47
17230;BME280;8731;50.364;8.958;2023-05-03T02:53:29;101214.78;;;4.39;84.07
17230;BME280;8731;50.364;8.958;2023-05-03T02:57:55;101212.38;;;4.46;83.00
17230;BME280;8731;50.364;8.958;2023-05-03T03:02:18;101210.53;;;4.19;85.26
17230;BME280;8731;50.364;8.958;2023-05-03T03:06:41;101207.13;;;3.88;87.70
17230;BME280;8731;50.364;8.958;2023-05-03T03:11:05;101203.91;;;4.32;83.71
17230;BME280;8731;50.364;8.958;2023-05-03T03:15:28;101214.50;;;3.99;85.69
17230;BME280;8731;50.364;8.958;2023-05-03T03:19:50;101212.69;;;3.98;87.13
17230;BME280;8731;50.364;8.958;2023-05-03T03:24:13;101207.09;;;4.06;85.58
17230;BME280;8731;50.364;8.958;2023-05-03T03:28:37;101204.91;;;3.96;85.23
17230;BME280;8731;50.364;8.958;2023-05-03T03:33:03;101201.28;;;3.94;85.11
17230;BME280;8731;50.364;8.958;2023-05-03T03:37:31;101206.69;;;4.03;84.13
17230;BME280;8731;50.364;8.958;2023-05-03T03:41:54;101200.72;;;4.03;83.37
17230;BME280;8731;50.364;8.958;2023-05-03T03:46:18;101210.94;;;3.79;84.83
17230;BME280;8731;50.364;8.958;2023-05-03T03:50:44;101207.53;;;3.60;84.60
17230;BME280;8731;50.364;8.958;2023-05-03T03:55:08;101212.50;;;3.78;84.18
17230;BME280;8731;50.364;8.958;2023-05-03T03:59:31;101207.22;;;3.82;84.10
17230;BME280;8731;50.364;8.958;2023-05-03T04:03:55;101209.53;;;3.81;82.47
17230;BME280;8731;50.364;8.958;2023-05-03T04:08:17;101215.69;;;3.46;86.90
17230;BME280;8731;50.364;8.958;2023-05-03T04:12:40;101215.63;;;3.52;85.73
17230;BME280;8731;50.364;8.958;2023-05-03T04:17:02;101220.72;;;3.46;85.20
17230;BME280;8731;50.364;8.958;2023-05-03T04:21:27;101228.16;;;3.39;87.02
17230;BME280;8731;50.364;8.958;2023-05-03T04:25:50;101226.81;;;3.35;86.85
17230;BME280;8731;50.364;8.958;2023-05-03T04:30:13;101234.31;;;3.41;87.25
17230;BME280;8731;50.364;8.958;2023-05-03T04:34:41;101236.75;;;3.65;85.80
17230;BME280;8731;50.364;8.958;2023-05-03T04:39:05;101241.16;;;3.42;88.15
17230;BME280;8731;50.364;8.958;2023-05-03T04:43:29;101238.63;;;3.24;89.62
17230;BME280;8731;50.364;8.958;2023-05-03T04:47:53;101233.72;;;3.49;88.47
17230;BME280;8731;50.364;8.958;2023-05-03T04:52:15;101245.41;;;3.49;89.82
17230;BME280;8731;50.364;8.958;2023-05-03T04:56:39;101242.78;;;3.60;89.66
17230;BME280;8731;50.364;8.958;2023-05-03T05:01:07;101234.63;;;3.68;89.55
17230;BME280;8731;50.364;8.958;2023-05-03T05:05:31;101238.88;;;3.75;89.05
17230;BME280;8731;50.364;8.958;2023-05-03T05:09:54;101237.34;;;3.88;89.51
17230;BME280;8731;50.364;8.958;2023-05-03T05:14:18;101239.94;;;4.70;88.50
17230;BME280;8731;50.364;8.958;2023-05-03T05:18:41;101245.78;;;5.59;85.04
17230;BME280;8731;50.364;8.958;2023-05-03T05:23:04;101230.00;;;5.87;83.82
17230;BME280;8731;50.364;8.958;2023-05-03T05:27:27;101232.78;;;6.55;81.42
17230;BME280;8731;50.364;8.958;2023-05-03T05:31:53;101229.00;;;7.13;78.91
17230;BME280;8731;50.364;8.958;2023-05-03T05:36:15;101230.16;;;8.06;78.21
17230;BME280;8731;50.364;8.958;2023-05-03T05:40:38;101230.91;;;8.54;73.31
17230;BME280;8731;50.364;8.958;2023-05-03T05:45:01;101222.03;;;9.23;73.10
17230;BME280;8731;50.364;8.958;2023-05-03T05:49:25;101211.25;;;10.46;71.02
17230;BME280;8731;50.364;8.958;2023-05-03T05:53:47;101215.69;;;10.94;65.99
17230;BME280;8731;50.364;8.958;2023-05-03T05:58:11;101208.72;;;12.05;66.81
17230;BME280;8731;50.364;8.958;2023-05-03T06:02:39;101203.25;;;11.69;62.64
17230;BME280;8731;50.364;8.958;2023-05-03T06:07:07;101205.13;;;12.95;62.38
17230;BME280;8731;50.364;8.958;2023-05-03T06:11:29;101191.94;;;13.60;59.21
17230;BME280;8731;50.364;8.958;2023-05-03T06:15:53;101192.63;;;14.29;60.17
17230;BME280;8731;50.364;8.958;2023-05-03T06:20:15;101201.31;;;14.04;58.30
17230;BME280;8731;50.364;8.958;2023-05-03T06:24:39;101197.44;;;14.43;55.85
17230;BME280;8731;50.364;8.958;2023-05-03T06:29:02;101190.63;;;14.99;54.47
17230;BME280;8731;50.364;8.958;2023-05-03T06:33:25;101193.47;;;15.40;54.06
17230;BME280;8731;50.364;8.958;2023-05-03T06:37:48;101184.38;;;15.91;55.63
17230;BME280;8731;50.364;8.958;2023-05-03T06:42:12;101180.75;;;16.28;52.52
17230;BME280;8731;50.364;8.958;2023-05-03T06:46:36;101191.25;;;15.82;55.33
17230;BME280;8731;50.364;8.958;2023-05-03T06:50:59;101192.72;;;15.88;56.51
17230;BME280;8731;50.364;8.958;2023-05-03T06:55:21;101178.47;;;15.63;58.69
17230;BME280;8731;50.364;8.958;2023-05-03T06:59:45;101176.78;;;16.52;55.74
17230;BME280;8731;50.364;8.958;2023-05-03T07:04:07;101177.22;;;17.07;53.52
17230;BME280;8731;50.364;8.958;2023-05-03T07:08:30;101175.13;;;17.24;52.75
17230;BME280;8731;50.364;8.958;2023-05-03T07:12:52;101171.69;;;18.19;47.22
17230;BME280;8731;50.364;8.958;2023-05-03T07:17:16;101156.50;;;17.16;45.38
17230;BME280;8731;50.364;8.958;2023-05-03T07:21:38;101156.38;;;17.99;47.59
17230;BME280;8731;50.364;8.958;2023-05-03T07:26:01;101156.53;;;17.90;44.84
17230;BME280;8731;50.364;8.958;2023-05-03T07:30:23;101152.94;;;18.10;43.18
17230;BME280;8731;50.364;8.958;2023-05-03T07:34:47;101151.06;;;18.63;42.49
17230;BME280;8731;50.364;8.958;2023-05-03T07:39:09;101145.59;;;18.70;41.35
17230;BME280;8731;50.364;8.958;2023-05-03T07:43:32;101156.19;;;18.29;40.94
17230;BME280;8731;50.364;8.958;2023-05-03T07:47:54;101152.84;;;18.42;44.29
17230;BME280;8731;50.364;8.958;2023-05-03T07:52:19;101141.25;;;19.16;42.46
17230;BME280;8731;50.364;8.958;2023-05-03T07:56:41;101150.25;;;18.97;41.60
17230;BME280;8731;50.364;8.958;2023-05-03T08:01:03;101155.28;;;18.29;41.44
17230;BME280;8731;50.364;8.958;2023-05-03T08:05:25;101145.53;;;18.36;39.58
17230;BME280;8731;50.364;8.958;2023-05-03T08:09:49;101128.31;;;20.22;39.93
17230;BME280;8731;50.364;8.958;2023-05-03T08:14:12;101134.38;;;20.23;40.15
17230;BME280;8731;50.364;8.958;2023-05-03T08:18:35;101135.78;;;18.99;38.52
17230;BME280;8731;50.364;8.958;2023-05-03T08:22:57;101131.72;;;19.61;40.09
17230;BME280;8731;50.364;8.958;2023-05-03T08:27:22;101124.72;;;20.20;37.83
17230;BME280;8731;50.364;8.958;2023-05-03T08:31:47;101131.50;;;19.47;38.00
17230;BME280;8731;50.364;8.958;2023-05-03T08:36:09;101111.00;;;21.90;37.08
17230;BME280;8731;50.364;8.958;2023-05-03T08:40:31;101115.44;;;21.78;37.71
17230;BME280;8731;50.364;8.958;2023-05-03T08:44:58;101116.94;;;20.57;37.64
17230;BME280;8731;50.364;8.958;2023-05-03T08:49:20;101116.63;;;20.91;37.31
17230;BME280;8731;50.364;8.958;2023-05-03T08:53:42;101127.88;;;19.80;37.25
17230;BME280;8731;50.364;8.958;2023-05-03T08:58:06;101123.25;;;20.24;36.56
17230;BME280;8731;50.364;8.958;2023-05-03T09:02:33;101121.13;;;19.82;37.03
17230;BME280;8731;50.364;8.958;2023-05-03T09:07:06;101113.06;;;21.15;36.29
17230;BME280;8731;50.364;8.958;2023-05-03T09:11:30;101116.38;;;21.93;35.11
17230;BME280;8731;50.364;8.958;2023-05-03T09:15:54;101120.38;;;21.75;36.85
17230;BME280;8731;50.364;8.958;2023-05-03T09:20:32;101100.56;;;22.74;35.19
17230;BME280;8731;50.364;8.958;2023-05-03T09:24:57;101107.53;;;22.18;36.48
17230;BME280;8731;50.364;8.958;2023-05-03T09:29:26;101110.63;;;20.92;35.14
17230;BME280;8731;50.364;8.958;2023-05-03T09:33:49;101091.44;;;23.10;32.51
17230;BME280;8731;50.364;8.958;2023-05-03T09:38:25;101093.00;;;22.34;33.35
17230;BME280;8731;50.364;8.958;2023-05-03T09:43:08;101097.72;;;21.44;35.76
17230;BME280;8731;50.364;8.958;2023-05-03T09:47:35;101085.69;;;22.14;33.78
17230;BME280;8731;50.364;8.958;2023-05-03T09:52:11;101079.94;;;23.52;33.78
17230;BME280;8731;50.364;8.958;2023-05-03T09:56:36;101088.34;;;21.47;35.88
17230;BME280;8731;50.364;8.958;2023-05-03T10:00:59;101070.13;;;23.01;34.16
17230;BME280;8731;50.364;8.958;2023-05-03T10:05:22;101062.97;;;23.43;34.16
17230;BME280;8731;50.364;8.958;2023-05-03T10:09:48;101057.50;;;23.69;33.73
17230;BME280;8731;50.364;8.958;2023-05-03T10:14:12;101069.16;;;21.99;35.82
17230;BME280;8731;50.364;8.958;2023-05-03T10:18:39;101061.81;;;22.05;34.30
17230;BME280;8731;50.364;8.958;2023-05-03T10:23:12;101051.75;;;22.68;34.85
17230;BME280;8731;50.364;8.958;2023-05-03T10:27:47;101044.63;;;23.25;35.22
17230;BME280;8731;50.364;8.958;2023-05-03T10:37:02;101052.44;;;22.22;36.71
17230;BME280;8731;50.364;8.958;2023-05-03T10:41:31;101046.41;;;22.95;34.51
17230;BME280;8731;50.364;8.958;2023-05-03T10:45:55;101046.19;;;22.33;33.63
17230;BME280;8731;50.364;8.958;2023-05-03T10:50:25;101040.94;;;22.03;33.41
17230;BME280;8731;50.364;8.958;2023-05-03T10:54:49;101042.13;;;21.39;34.99
17230;BME280;8731;50.364;8.958;2023-05-03T10:59:11;101041.81;;;22.91;31.52
17230;BME280;8731;50.364;8.958;2023-05-03T11:08:23;101029.44;;;24.12;30.95
17230;BME280;8731;50.364;8.958;2023-05-03T11:12:48;101023.53;;;23.82;33.18
17230;BME280;8731;50.364;8.958;2023-05-03T11:17:11;101029.94;;;22.50;34.91
17230;BME280;8731;50.364;8.958;2023-05-03T11:21:33;101009.94;;;24.04;33.45
17230;BME280;8731;50.364;8.958;2023-05-03T11:25:56;101016.41;;;21.42;32.53
17230;BME280;8731;50.364;8.958;2023-05-03T11:30:20;101006.56;;;22.35;31.92
17230;BME280;8731;50.364;8.958;2023-05-03T11:34:42;100997.06;;;23.11;32.38
17230;BME280;8731;50.364;8.958;2023-05-03T11:39:05;100994.00;;;23.66;31.87
17230;BME280;8731;50.364;8.958;2023-05-03T11:43:28;100987.41;;;21.91;34.13
17230;BME280;8731;50.364;8.958;2023-05-03T11:47:52;100990.13;;;23.26;34.32
17230;BME280;8731;50.364;8.958;2023-05-03T11:52:19;100990.34;;;22.54;33.09
17230;BME280;8731;50.364;8.958;2023-05-03T11:56:42;100985.75;;;22.80;33.28
17230;BME280;8731;50.364;8.958;2023-05-03T12:01:05;100981.78;;;21.98;33.77
17230;BME280;8731;50.364;8.958;2023-05-03T12:05:28;100980.16;;;21.16;33.58
17230;BME280;8731;50.364;8.958;2023-05-03T12:09:51;100979.81;;;21.79;33.54
17230;BME280;8731;50.364;8.958;2023-05-03T12:14:13;100976.81;;;22.45;34.96
17230;BME280;8731;50.364;8.958;2023-05-03T12:18:47;100977.63;;;21.72;34.69
17230;BME280;8731;50.364;8.958;2023-05-03T12:23:12;100974.94;;;21.42;34.35
17230;BME280;8731;50.364;8.958;2023-05-03T12:27:34;100959.09;;;21.38;34.32
17230;BME280;8731;50.364;8.958;2023-05-03T12:31:56;100955.28;;;22.17;35.56
17230;BME280;8731;50.364;8.958;2023-05-03T12:36:22;100942.81;;;21.54;35.13
17230;BME280;8731;50.364;8.958;2023-05-03T12:40:47;100937.75;;;21.42;34.59
17230;BME280;8731;50.364;8.958;2023-05-03T12:45:11;100942.06;;;20.87;34.38
17230;BME280;8731;50.364;8.958;2023-05-03T12:49:34;100926.84;;;20.65;35.07
17230;BME280;8731;50.364;8.958;2023-05-03T12:53:56;100920.13;;;20.29;34.80
17230;BME280;8731;50.364;8.958;2023-05-03T12:58:20;100905.97;;;21.44;35.51
17230;BME280;8731;50.364;8.958;2023-05-03T13:02:42;100913.41;;;20.44;33.16
17230;BME280;8731;50.364;8.958;2023-05-03T13:07:04;100915.97;;;19.80;34.94
17230;BME280;8731;50.364;8.958;2023-05-03T13:11:28;100906.34;;;20.42;34.91
17230;BME280;8731;50.364;8.958;2023-05-03T13:15:52;100892.28;;;20.78;35.63
17230;BME280;8731;50.364;8.958;2023-05-03T13:20:14;100885.75;;;20.98;36.39
17230;BME280;8731;50.364;8.958;2023-05-03T13:24:36;100884.06;;;20.44;35.81
17230;BME280;8731;50.364;8.958;2023-05-03T13:28:59;100877.38;;;20.47;34.20
17230;BME280;8731;50.364;8.958;2023-05-03T13:33:23;100872.31;;;20.49;33.23
17230;BME280;8731;50.364;8.958;2023-05-03T13:37:45;100867.13;;;20.62;34.57
17230;BME280;8731;50.364;8.958;2023-05-03T13:42:07;100873.28;;;20.24;34.31
17230;BME280;8731;50.364;8.958;2023-05-03T13:46:30;100861.03;;;20.09;34.11
17230;BME280;8731;50.364;8.958;2023-05-03T13:50:54;100861.78;;;19.81;33.89
17230;BME280;8731;50.364;8.958;2023-05-03T13:55:16;100859.88;;;19.66;35.58
17230;BME280;8731;50.364;8.958;2023-05-03T13:59:38;100847.69;;;20.82;34.98
17230;BME280;8731;50.364;8.958;2023-05-03T14:04:01;100851.38;;;20.72;34.34
17230;BME280;8731;50.364;8.958;2023-05-03T14:08:25;100836.41;;;20.81;32.99
17230;BME280;8731;50.364;8.958;2023-05-03T14:12:47;100826.00;;;21.23;33.97
17230;BME280;8731;50.364;8.958;2023-05-03T14:17:11;100824.81;;;19.82;33.81
17230;BME280;8731;50.364;8.958;2023-05-03T14:21:33;100818.53;;;19.66;34.29
17230;BME280;8731;50.364;8.958;2023-05-03T14:25:57;100821.97;;;20.44;34.49
17230;BME280;8731;50.364;8.958;2023-05-03T14:30:19;100818.66;;;20.20;34.18
17230;BME280;8731;50.364;8.958;2023-05-03T14:34:42;100813.69;;;20.23;34.45
17230;BME280;8731;50.364;8.958;2023-05-03T14:39:04;100813.22;;;19.89;35.57
17230;BME280;8731;50.364;8.958;2023-05-03T14:43:28;100805.22;;;19.86;35.66
17230;BME280;8731;50.364;8.958;2023-05-03T14:47:50;100807.09;;;20.68;35.19
17230;BME280;8731;50.364;8.958;2023-05-03T14:52:13;100798.88;;;20.20;33.88
17230;BME280;8731;50.364;8.958;2023-05-03T14:56:35;100795.56;;;20.49;36.14
17230;BME280;8731;50.364;8.958;2023-05-03T15:00:59;100792.56;;;20.57;35.66
17230;BME280;8731;50.364;8.958;2023-05-03T15:05:21;100795.22;;;20.71;34.84
17230;BME280;8731;50.364;8.958;2023-05-03T15:09:43;100791.41;;;20.79;35.41
17230;BME280;8731;50.364;8.958;2023-05-03T15:14:06;100783.66;;;20.79;35.63
17230;BME280;8731;50.364;8.958;2023-05-03T15:18:30;100781.13;;;20.53;36.42
17230;BME280;8731;50.364;8.958;2023-05-03T15:22:52;100780.75;;;20.47;36.44
17230;BME280;8731;50.364;8.958;2023-05-03T15:27:15;100777.47;;;20.77;36.64
17230;BME280;8731;50.364;8.958;2023-05-03T15:31:37;100766.94;;;20.74;36.05
17230;BME280;8731;50.364;8.958;2023-05-03T15:36:01;100771.72;;;20.40;35.86
17230;BME280;8731;50.364;8.958;2023-05-03T15:40:27;100765.97;;;19.65;36.49
17230;BME280;8731;50.364;8.958;2023-05-03T15:44:50;100767.25;;;19.72;35.64
17230;BME280;8731;50.364;8.958;2023-05-03T15:49:12;100765.78;;;20.56;36.16
17230;BME280;8731;50.364;8.958;2023-05-03T15:53:36;100752.09;;;20.31;35.22
17230;BME280;8731;50.364;8.958;2023-05-03T15:58:00;100761.50;;;20.15;36.82
17230;BME280;8731;50.364;8.958;2023-05-03T16:02:22;100755.84;;;19.95;36.87
17230;BME280;8731;50.364;8.958;2023-05-03T16:06:44;100761.25;;;20.39;37.65
17230;BME280;8731;50.364;8.958;2023-05-03T16:11:09;100754.38;;;20.52;37.30
17230;BME280;8731;50.364;8.958;2023-05-03T16:15:32;100751.03;;;20.40;37.15
17230;BME280;8731;50.364;8.958;2023-05-03T16:19:54;100752.72;;;19.87;37.75
17230;BME280;8731;50.364;8.958;2023-05-03T16:24:16;100752.03;;;19.63;37.85
17230;BME280;8731;50.364;8.958;2023-05-03T16:28:40;100753.81;;;20.17;37.59
17230;BME280;8731;50.364;8.958;2023-05-03T16:33:03;100752.75;;;20.13;37.70
17230;BME280;8731;50.364;8.958;2023-05-03T16:37:25;100738.00;;;20.26;37.74
17230;BME280;8731;50.364;8.958;2023-05-03T16:41:48;100747.06;;;20.19;38.23
17230;BME280;8731;50.364;8.958;2023-05-03T16:46:11;100742.00;;;20.07;38.55
17230;BME280;8731;50.364;8.958;2023-05-03T16:50:34;100739.03;;;20.14;37.88
17230;BME280;8731;50.364;8.958;2023-05-03T16:54:57;100733.16;;;20.17;38.10
17230;BME280;8731;50.364;8.958;2023-05-03T16:59:19;100726.09;;;20.14;38.37
17230;BME280;8731;50.364;8.958;2023-05-03T17:03:43;100733.19;;;19.90;38.50
17230;BME280;8731;50.364;8.958;2023-05-03T17:08:05;100738.22;;;20.02;38.77
17230;BME280;8731;50.364;8.958;2023-05-03T17:12:28;100733.25;;;19.79;38.79
17230;BME280;8731;50.364;8.958;2023-05-03T17:16:51;100738.84;;;19.72;39.15
17230;BME280;8731;50.364;8.958;2023-05-03T17:21:15;100735.25;;;19.56;39.08
17230;BME280;8731;50.364;8.958;2023-05-03T17:25:38;100731.59;;;19.28;39.06
17230;BME280;8731;50.364;8.958;2023-05-03T17:30:02;100734.38;;;19.31;39.12
17230;BME280;8731;50.364;8.958;2023-05-03T17:34:24;100732.00;;;19.34;38.97
17230;BME280;8731;50.364;8.958;2023-05-03T17:38:48;100731.09;;;19.33;39.29
17230;BME280;8731;50.364;8.958;2023-05-03T17:43:10;100735.16;;;19.30;39.71
17230;BME280;8731;50.364;8.958;2023-05-03T17:47:35;100735.81;;;18.76;41.42
17230;BME280;8731;50.364;8.958;2023-05-03T17:51:57;100744.47;;;18.65;41.46
17230;BME280;8731;50.364;8.958;2023-05-03T17:56:21;100743.34;;;18.61;41.65
17230;BME280;8731;50.364;8.958;2023-05-03T18:00:44;100736.50;;;18.62;41.42
17230;BME280;8731;50.364;8.958;2023-05-03T18:05:08;100740.81;;;18.50;42.44
17230;BME280;8731;50.364;8.958;2023-05-03T18:09:31;100747.75;;;18.02;42.54
17230;BME280;8731;50.364;8.958;2023-05-03T18:13:55;100746.50;;;17.97;42.63
17230;BME280;8731;50.364;8.958;2023-05-03T18:18:17;100748.63;;;18.03;42.69
17230;BME280;8731;50.364;8.958;2023-05-03T18:22:39;100743.47;;;17.68;42.88
17230;BME280;8731;50.364;8.958;2023-05-03T18:27:02;100747.22;;;17.49;43.57
17230;BME280;8731;50.364;8.958;2023-05-03T18:31:26;100751.75;;;17.64;43.45
17230;BME280;8731;50.364;8.958;2023-05-03T18:35:48;100749.66;;;17.25;43.50
17230;BME280;8731;50.364;8.958;2023-05-03T18:40:12;100757.63;;;17.28;43.83
17230;BME280;8731;50.364;8.958;2023-05-03T18:44:35;100759.09;;;17.36;43.83
17230;BME280;8731;50.364;8.958;2023-05-03T18:49:00;100762.00;;;17.29;42.91
17230;BME280;8731;50.364;8.958;2023-05-03T18:53:22;100764.66;;;17.18;43.21
17230;BME280;8731;50.364;8.958;2023-05-03T18:57:48;100768.47;;;17.24;43.56
17230;BME280;8731;50.364;8.958;2023-05-03T19:02:11;100771.44;;;17.06;44.26
17230;BME280;8731;50.364;8.958;2023-05-03T19:06:35;100781.06;;;17.09;44.30
17230;BME280;8731;50.364;8.958;2023-05-03T19:11:05;100783.81;;;17.00;44.67
17230;BME280;8731;50.364;8.958;2023-05-03T19:15:28;100784.50;;;16.76;45.91
17230;BME280;8731;50.364;8.958;2023-05-03T19:19:50;100797.13;;;16.73;45.69
17230;BME280;8731;50.364;8.958;2023-05-03T19:24:14;100799.53;;;16.49;46.09
17230;BME280;8731;50.364;8.958;2023-05-03T19:28:36;100801.56;;;16.53;45.80
17230;BME280;8731;50.364;8.958;2023-05-03T19:32:58;100796.00;;;16.37;45.57
17230;BME280;8731;50.364;8.958;2023-05-03T19:37:21;100795.66;;;16.33;45.68
17230;BME280;8731;50.364;8.958;2023-05-03T19:41:45;100795.53;;;16.21;45.44
17230;BME280;8731;50.364;8.958;2023-05-03T19:46:08;100795.41;;;15.87;45.80
17230;BME280;8731;50.364;8.958;2023-05-03T19:50:34;100801.31;;;15.76;46.17
17230;BME280;8731;50.364;8.958;2023-05-03T19:54:56;100799.78;;;15.78;45.61
17230;BME280;8731;50.364;8.958;2023-05-03T19:59:20;100808.00;;;15.74;45.53
17230;BME280;8731;50.364;8.958;2023-05-03T20:03:42;100801.09;;;15.63;46.27
17230;BME280;8731;50.364;8.958;2023-05-03T20:08:05;100807.09;;;15.53;45.94
17230;BME280;8731;50.364;8.958;2023-05-03T20:12:28;100812.75;;;15.29;46.83
17230;BME280;8731;50.364;8.958;2023-05-03T20:16:52;100813.50;;;15.28;46.75
17230;BME280;8731;50.364;8.958;2023-05-03T20:21:15;100806.22;;;15.22;46.58
17230;BME280;8731;50.364;8.958;2023-05-03T20:25:37;100802.75;;;15.22;46.69
17230;BME280;8731;50.364;8.958;2023-05-03T20:30:00;100792.72;;;14.94;47.74
17230;BME280;8731;50.364;8.958;2023-05-03T20:34:25;100791.00;;;14.74;47.88
17230;BME280;8731;50.364;8.958;2023-05-03T20:38:47;100790.75;;;14.42;49.47
17230;BME280;8731;50.364;8.958;2023-05-03T20:43:10;100785.31;;;14.48;49.98
17230;BME280;8731;50.364;8.958;2023-05-03T20:47:32;100789.94;;;14.33;50.30
17230;BME280;8731;50.364;8.958;2023-05-03T20:51:56;100789.41;;;14.27;50.62
17230;BME280;8731;50.364;8.958;2023-05-03T20:56:18;100791.03;;;14.17;50.70
17230;BME280;8731;50.364;8.958;2023-05-03T21:00:41;100786.56;;;13.95;51.68
17230;BME280;8731;50.364;8.958;2023-05-03T21:05:04;100788.72;;;13.72;52.62
17230;BME280;8731;50.364;8.958;2023-05-03T21:09:28;100792.81;;;13.89;51.49
17230;BME280;8731;50.364;8.958;2023-05-03T21:13:50;100794.59;;;13.71;52.22
17230;BME280;8731;50.364;8.958;2023-05-03T21:18:12;100799.94;;;13.82;51.35
17230;BME280;8731;50.364;8.958;2023-05-03T21:22:35;100798.63;;;13.77;51.17
17230;BME280;8731;50.364;8.958;2023-05-03T21:26:58;100795.81;;;13.56;51.88
17230;BME280;8731;50.364;8.958;2023-05-03T21:31:21;100799.13;;;13.55;51.26
17230;BME280;8731;50.364;8.958;2023-05-03T21:35:44;100803.97;;;13.24;53.36
17230;BME280;8731;50.364;8.958;2023-05-03T21:40:07;100806.28;;;13.12;54.50
17230;BME280;8731;50.364;8.958;2023-05-03T21:44:31;100799.47;;;13.21;53.17
17230;BME280;8731;50.364;8.958;2023-05-03T21:48:54;100806.41;;;13.14;52.71
17230;BME280;8731;50.364;8.958;2023-05-03T21:53:16;100799.09;;;13.08;53.34
17230;BME280;8731;50.364;8.958;2023-05-03T21:57:39;100794.69;;;12.88;52.94
17230;BME280;8731;50.364;8.958;2023-05-03T22:02:02;100797.78;;;12.67;54.95
17230;BME280;8731;50.364;8.958;2023-05-03T22:06:24;100782.59;;;12.33;57.53
17230;BME280;8731;50.364;8.958;2023-05-03T22:10:47;100779.91;;;12.05;58.23
17230;BME280;8731;50.364;8.958;2023-05-03T22:15:10;100778.59;;;12.00;58.40
17230;BME280;8731;50.364;8.958;2023-05-03T22:19:36;100778.72;;;12.10;57.53
17230;BME280;8731;50.364;8.958;2023-05-03T22:23:58;100779.63;;;12.02;57.50
17230;BME280;8731;50.364;8.958;2023-05-03T22:28:21;100790.41;;;11.56;60.29
17230;BME280;8731;50.364;8.958;2023-05-03T22:32:43;100784.16;;;11.61;60.27
17230;BME280;8731;50.364;8.958;2023-05-03T22:37:07;100779.78;;;11.78;58.86
17230;BME280;8731;50.364;8.958;2023-05-03T22:41:35;100787.34;;;11.00;62.82
17230;BME280;8731;50.364;8.958;2023-05-03T22:45:58;100777.47;;;11.03;62.68
17230;BME280;8731;50.364;8.958;2023-05-03T22:50:21;100779.59;;;11.33;61.34
17230;BME280;8731;50.364;8.958;2023-05-03T22:54:47;100783.19;;;11.35;60.50
17230;BME280;8731;50.364;8.958;2023-05-03T22:59:14;100772.84;;;11.25;61.23
17230;BME280;8731;50.364;8.958;2023-05-03T23:03:36;100771.19;;;11.25;60.51
17230;BME280;8731;50.364;8.958;2023-05-03T23:07:59;100762.06;;;11.27;60.41
17230;BME280;8731;50.364;8.958;2023-05-03T23:12:22;100764.75;;;11.20;60.06
17230;BME280;8731;50.364;8.958;2023-05-03T23:16:44;100767.00;;;11.26;59.55
17230;BME280;8731;50.364;8.958;2023-05-03T23:21:07;100762.81;;;11.18;59.66
17230;BME280;8731;50.364;8.958;2023-05-03T23:25:29;100762.81;;;11.18;59.83
17230;BME280;8731;50.364;8.958;2023-05-03T23:29:53;100759.31;;;11.08;59.77